Hiroshima Airport


Codes: RJOA/HIJ
Name: Hiroshima Airport
City: Hiroshima
Country: Japan
Elevation: 1088 ft.
Wikipedia:

Photos at Hiroshima Airport


   Photos courtesy of SpottingLog. You can add your own sightings and photos by signing up for a free trial today.



B-18608, 28-May-2016
© Tomo-Papa

B-6459, 28-May-2016
© Tomo-Papa

JA8569, 28-May-2016
© Tomo-Papa

B-5585, 28-May-2016
© Tomo-Papa


Weather at Hiroshima Airport


Time (UTC)DescriptionTempratureWindCloud coverageVisibilityPressureHumidity
15-Apr-2024 15:00Light Rain15°C2 mph, E100%10000m1015hPa82%
15-Apr-2024 18:00Light Rain15°C4 mph, E100%10000m1015hPa87%
15-Apr-2024 21:00Light Rain15°C2 mph, E84%10000m1015hPa92%
16-Apr-2024 00:00Light Rain17°C4 mph, SE88%10000m1015hPa88%
16-Apr-2024 03:00Light Rain20°C4 mph, S74%10000m1013hPa77%
16-Apr-2024 06:00Light Rain21°C11 mph, SW49%10000m1011hPa71%
16-Apr-2024 09:00Light Rain18°C4 mph, SW15%10000m1011hPa90%
16-Apr-2024 12:00Light Rain15°C4 mph, W25%10000m1013hPa96%
16-Apr-2024 15:00Clear Sky14°C2 mph, NW9%10000m1013hPa96%
16-Apr-2024 18:00Few Clouds13°C2 mph, NW14%10000m1013hPa94%
16-Apr-2024 21:00Broken Clouds13°C2 mph, N80%10000m1013hPa92%
17-Apr-2024 00:00Broken Clouds18°C2 mph, SW58%10000m1013hPa73%
17-Apr-2024 03:00Clear Sky22°C4 mph, SW4%10000m1012hPa54%
17-Apr-2024 06:00Clear Sky21°C7 mph, SW5%10000m1010hPa56%
17-Apr-2024 09:00Scattered Clouds18°C4 mph, NW46%10000m1010hPa69%
17-Apr-2024 12:00Broken Clouds14°C4 mph, N73%10000m1011hPa66%
17-Apr-2024 15:00Overcast Clouds14°C4 mph, N100%10000m1011hPa68%
17-Apr-2024 18:00Overcast Clouds14°C4 mph, N100%10000m1010hPa66%
17-Apr-2024 21:00Overcast Clouds13°C4 mph, N100%10000m1009hPa69%
18-Apr-2024 00:00Overcast Clouds17°C2 mph, NE100%10000m1010hPa60%
18-Apr-2024 03:00Broken Clouds21°C2 mph, N73%10000m1009hPa51%
18-Apr-2024 06:00Scattered Clouds21°C4 mph, NW36%10000m1007hPa39%
18-Apr-2024 09:00Clear Sky17°C11 mph, NW0%10000m1009hPa62%
18-Apr-2024 12:00Clear Sky13°C7 mph, NW0%10000m1011hPa82%
18-Apr-2024 15:00Clear Sky11°C4 mph, N0%10000m1012hPa88%
18-Apr-2024 18:00Clear Sky11°C4 mph, N0%10000m1013hPa81%
18-Apr-2024 21:00Clear Sky11°C4 mph, N5%10000m1015hPa72%
19-Apr-2024 00:00Clear Sky18°C0 mph, N3%10000m1015hPa44%
19-Apr-2024 03:00Clear Sky22°C7 mph, SE3%10000m1014hPa38%
19-Apr-2024 06:00Few Clouds22°C7 mph, S18%10000m1013hPa41%
19-Apr-2024 09:00Overcast Clouds17°C2 mph, SW85%10000m1013hPa63%
19-Apr-2024 12:00Broken Clouds14°C2 mph, W78%10000m1015hPa55%
19-Apr-2024 15:00Scattered Clouds13°C2 mph, NW46%10000m1015hPa55%
19-Apr-2024 18:00Broken Clouds13°C2 mph, NW75%10000m1014hPa65%
19-Apr-2024 21:00Overcast Clouds13°C0 mph, E96%10000m1014hPa74%
20-Apr-2024 00:00Overcast Clouds16°C4 mph, SE96%10000m1013hPa71%
20-Apr-2024 03:00Overcast Clouds19°C7 mph, SE100%10000m1011hPa51%
20-Apr-2024 06:00Light Rain14°C4 mph, SE100%10000m1008hPa76%
20-Apr-2024 09:00Moderate Rain13°C2 mph, E100%3887m1005hPa96%
20-Apr-2024 12:00Moderate Rain14°C2 mph, NE100%4989m1005hPa98%